sensor_id;sensor_type;location;lat;lon;timestamp;temperature;humidity
52211;DHT22;38179;52.756;6.906;2022-10-31T00:01:18;13.20;99.90
52211;DHT22;38179;52.756;6.906;2022-10-31T00:03:44;13.30;99.90
52211;DHT22;38179;52.756;6.906;2022-10-31T00:06:10;13.20;99.90
52211;DHT22;38179;52.756;6.906;2022-10-31T00:08:36;13.20;99.90
52211;DHT22;38179;52.756;6.906;2022-10-31T00:11:03;13.20;99.90
52211;DHT22;38179;52.756;6.906;2022-10-31T00:13:29;13.20;99.90
52211;DHT22;38179;52.756;6.906;2022-10-31T00:15:55;13.20;99.90
52211;DHT22;38179;52.756;6.906;2022-10-31T00:18:21;13.10;99.90
52211;DHT22;38179;52.756;6.906;2022-10-31T00:20:47;13.10;99.90
52211;DHT22;38179;52.756;6.906;2022-10-31T00:23:13;13.00;99.90
52211;DHT22;38179;52.756;6.906;2022-10-31T00:25:39;13.00;99.90
52211;DHT22;38179;52.756;6.906;2022-10-31T00:28:07;12.90;99.90
52211;DHT22;38179;52.756;6.906;2022-10-31T00:30:34;12.90;99.90
52211;DHT22;38179;52.756;6.906;2022-10-31T00:33:00;12.90;99.90
52211;DHT22;38179;52.756;6.906;2022-10-31T00:35:28;12.80;99.90
52211;DHT22;38179;52.756;6.906;2022-10-31T00:37:54;12.90;99.90
52211;DHT22;38179;52.756;6.906;2022-10-31T00:40:20;12.80;99.90
52211;DHT22;38179;52.756;6.906;2022-10-31T00:42:46;12.80;99.90
52211;DHT22;38179;52.756;6.906;2022-10-31T00:45:12;12.80;99.90
52211;DHT22;38179;52.756;6.906;2022-10-31T00:47:38;12.80;99.90
52211;DHT22;38179;52.756;6.906;2022-10-31T00:50:05;12.80;99.90
52211;DHT22;38179;52.756;6.906;2022-10-31T00:52:31;12.80;99.90
52211;DHT22;38179;52.756;6.906;2022-10-31T00:54:57;12.70;99.90
52211;DHT22;38179;52.756;6.906;2022-10-31T00:57:23;12.70;99.90
52211;DHT22;38179;52.756;6.906;2022-10-31T00:59:49;12.70;99.90
52211;DHT22;38179;52.756;6.906;2022-10-31T01:02:15;12.70;99.90
52211;DHT22;38179;52.756;6.906;2022-10-31T01:04:41;12.80;99.90
52211;DHT22;38179;52.756;6.906;2022-10-31T01:07:07;12.70;99.90
52211;DHT22;38179;52.756;6.906;2022-10-31T01:09:33;12.80;99.90
52211;DHT22;38179;52.756;6.906;2022-10-31T01:11:59;12.80;99.90
52211;DHT22;38179;52.756;6.906;2022-10-31T01:14:25;12.70;99.90
52211;DHT22;38179;52.756;6.906;2022-10-31T01:16:51;12.70;99.90
52211;DHT22;38179;52.756;6.906;2022-10-31T01:19:17;12.70;99.90
52211;DHT22;38179;52.756;6.906;2022-10-31T01:21:43;12.60;99.90
52211;DHT22;38179;52.756;6.906;2022-10-31T01:24:09;12.60;99.90
52211;DHT22;38179;52.756;6.906;2022-10-31T01:26:34;12.60;99.90
52211;DHT22;38179;52.756;6.906;2022-10-31T01:29:05;12.60;99.90
52211;DHT22;38179;52.756;6.906;2022-10-31T01:31:34;12.60;99.90
52211;DHT22;38179;52.756;6.906;2022-10-31T01:34:00;12.70;99.90
52211;DHT22;38179;52.756;6.906;2022-10-31T01:36:35;12.60;99.90
52211;DHT22;38179;52.756;6.906;2022-10-31T01:39:05;12.60;99.90
52211;DHT22;38179;52.756;6.906;2022-10-31T01:41:34;12.60;99.90
52211;DHT22;38179;52.756;6.906;2022-10-31T01:44:43;12.60;99.90
52211;DHT22;38179;52.756;6.906;2022-10-31T01:47:02;12.60;99.90
52211;DHT22;38179;52.756;6.906;2022-10-31T01:49:49;12.60;99.90
52211;DHT22;38179;52.756;6.906;2022-10-31T01:54:51;12.50;99.90
52211;DHT22;38179;52.756;6.906;2022-10-31T01:57:19;12.40;99.90
52211;DHT22;38179;52.756;6.906;2022-10-31T01:59:48;12.30;99.90
52211;DHT22;38179;52.756;6.906;2022-10-31T02:02:16;12.30;99.90
52211;DHT22;38179;52.756;6.906;2022-10-31T02:04:43;12.30;99.90
52211;DHT22;38179;52.756;6.906;2022-10-31T02:07:22;12.20;99.90
52211;DHT22;38179;52.756;6.906;2022-10-31T02:09:51;12.20;99.90
52211;DHT22;38179;52.756;6.906;2022-10-31T02:12:19;12.20;99.90
52211;DHT22;38179;52.756;6.906;2022-10-31T02:14:46;12.20;99.90
52211;DHT22;38179;52.756;6.906;2022-10-31T02:17:12;12.20;99.90
52211;DHT22;38179;52.756;6.906;2022-10-31T02:30:22;12.00;99.90
52211;DHT22;38179;52.756;6.906;2022-10-31T02:33:15;12.00;99.90
52211;DHT22;38179;52.756;6.906;2022-10-31T02:36:09;12.00;99.90
52211;DHT22;38179;52.756;6.906;2022-10-31T02:41:54;12.10;99.90
52211;DHT22;38179;52.756;6.906;2022-10-31T02:47:18;11.90;99.90
52211;DHT22;38179;52.756;6.906;2022-10-31T02:50:21;11.70;99.90
52211;DHT22;38179;52.756;6.906;2022-10-31T02:52:39;11.40;99.90
52211;DHT22;38179;52.756;6.906;2022-10-31T02:58:05;11.30;99.90
52211;DHT22;38179;52.756;6.906;2022-10-31T03:00:40;11.20;99.90
52211;DHT22;38179;52.756;6.906;2022-10-31T03:06:09;11.10;99.90
52211;DHT22;38179;52.756;6.906;2022-10-31T03:11:33;11.20;99.90
52211;DHT22;38179;52.756;6.906;2022-10-31T03:14:40;11.10;99.90
52211;DHT22;38179;52.756;6.906;2022-10-31T03:17:32;11.00;99.90
52211;DHT22;38179;52.756;6.906;2022-10-31T03:19:58;10.90;99.90
52211;DHT22;38179;52.756;6.906;2022-10-31T03:22:29;10.90;99.90
52211;DHT22;38179;52.756;6.906;2022-10-31T03:24:56;10.80;99.90
52211;DHT22;38179;52.756;6.906;2022-10-31T03:27:28;10.80;99.90
52211;DHT22;38179;52.756;6.906;2022-10-31T03:29:58;10.70;99.90
52211;DHT22;38179;52.756;6.906;2022-10-31T03:32:47;10.70;99.90
52211;DHT22;38179;52.756;6.906;2022-10-31T03:35:16;10.70;99.90
52211;DHT22;38179;52.756;6.906;2022-10-31T03:37:43;10.70;99.90
52211;DHT22;38179;52.756;6.906;2022-10-31T03:40:11;10.60;99.90
52211;DHT22;38179;52.756;6.906;2022-10-31T03:42:41;10.50;99.90
52211;DHT22;38179;52.756;6.906;2022-10-31T03:45:25;10.50;99.90
52211;DHT22;38179;52.756;6.906;2022-10-31T03:47:53;10.50;99.90
52211;DHT22;38179;52.756;6.906;2022-10-31T03:50:20;10.40;99.90
52211;DHT22;38179;52.756;6.906;2022-10-31T03:53:00;10.50;99.90
52211;DHT22;38179;52.756;6.906;2022-10-31T03:55:39;10.40;99.90
52211;DHT22;38179;52.756;6.906;2022-10-31T03:58:09;10.30;99.90
52211;DHT22;38179;52.756;6.906;2022-10-31T04:00:40;10.30;99.90
52211;DHT22;38179;52.756;6.906;2022-10-31T04:03:13;10.40;99.90
52211;DHT22;38179;52.756;6.906;2022-10-31T04:05:41;10.40;99.90
52211;DHT22;38179;52.756;6.906;2022-10-31T04:08:12;10.30;99.90
52211;DHT22;38179;52.756;6.906;2022-10-31T04:10:40;10.30;99.90
52211;DHT22;38179;52.756;6.906;2022-10-31T04:13:13;10.40;99.90
52211;DHT22;38179;52.756;6.906;2022-10-31T04:15:42;10.30;99.90
52211;DHT22;38179;52.756;6.906;2022-10-31T04:18:09;10.30;99.90
52211;DHT22;38179;52.756;6.906;2022-10-31T04:20:37;10.30;99.90
52211;DHT22;38179;52.756;6.906;2022-10-31T04:23:04;10.30;99.90
52211;DHT22;38179;52.756;6.906;2022-10-31T04:25:30;10.20;99.90
52211;DHT22;38179;52.756;6.906;2022-10-31T04:27:56;9.90;99.90
52211;DHT22;38179;52.756;6.906;2022-10-31T04:30:22;9.60;99.90
52211;DHT22;38179;52.756;6.906;2022-10-31T04:32:48;9.40;99.90
52211;DHT22;38179;52.756;6.906;2022-10-31T04:35:14;9.40;99.90
52211;DHT22;38179;52.756;6.906;2022-10-31T04:37:41;9.40;99.90
52211;DHT22;38179;52.756;6.906;2022-10-31T04:40:07;9.40;99.90
52211;DHT22;38179;52.756;6.906;2022-10-31T04:42:34;9.40;99.90
52211;DHT22;38179;52.756;6.906;2022-10-31T04:44:59;9.30;99.90
52211;DHT22;38179;52.756;6.906;2022-10-31T04:47:25;9.40;99.90
52211;DHT22;38179;52.756;6.906;2022-10-31T04:49:51;9.40;99.90
52211;DHT22;38179;52.756;6.906;2022-10-31T04:52:17;9.40;99.90
52211;DHT22;38179;52.756;6.906;2022-10-31T04:54:43;9.40;99.90
52211;DHT22;38179;52.756;6.906;2022-10-31T04:57:09;9.50;99.90
52211;DHT22;38179;52.756;6.906;2022-10-31T04:59:35;9.50;99.90
52211;DHT22;38179;52.756;6.906;2022-10-31T05:02:01;9.50;99.90
52211;DHT22;38179;52.756;6.906;2022-10-31T05:04:27;9.50;99.90
52211;DHT22;38179;52.756;6.906;2022-10-31T05:06:53;9.40;99.90
52211;DHT22;38179;52.756;6.906;2022-10-31T05:09:19;9.40;99.90
52211;DHT22;38179;52.756;6.906;2022-10-31T05:11:45;9.30;99.90
52211;DHT22;38179;52.756;6.906;2022-10-31T05:14:10;9.30;99.90
52211;DHT22;38179;52.756;6.906;2022-10-31T05:16:36;9.40;99.90
52211;DHT22;38179;52.756;6.906;2022-10-31T05:19:02;9.40;99.90
52211;DHT22;38179;52.756;6.906;2022-10-31T05:21:28;9.50;99.90
52211;DHT22;38179;52.756;6.906;2022-10-31T05:23:54;9.50;99.90
52211;DHT22;38179;52.756;6.906;2022-10-31T05:26:20;9.60;99.90
52211;DHT22;38179;52.756;6.906;2022-10-31T05:28:46;9.50;99.90
52211;DHT22;38179;52.756;6.906;2022-10-31T05:31:12;9.40;99.90
52211;DHT22;38179;52.756;6.906;2022-10-31T05:33:38;9.40;99.90
52211;DHT22;38179;52.756;6.906;2022-10-31T05:36:07;9.50;99.90
52211;DHT22;38179;52.756;6.906;2022-10-31T05:38:48;9.50;99.90
52211;DHT22;38179;52.756;6.906;2022-10-31T05:41:18;9.50;99.90
52211;DHT22;38179;52.756;6.906;2022-10-31T05:43:45;9.60;99.90
52211;DHT22;38179;52.756;6.906;2022-10-31T05:46:11;9.70;99.90
52211;DHT22;38179;52.756;6.906;2022-10-31T05:48:37;9.70;99.90
52211;DHT22;38179;52.756;6.906;2022-10-31T05:51:03;9.80;99.90
52211;DHT22;38179;52.756;6.906;2022-10-31T05:53:29;9.80;99.90
52211;DHT22;38179;52.756;6.906;2022-10-31T05:55:58;9.80;99.90
52211;DHT22;38179;52.756;6.906;2022-10-31T05:58:33;9.80;99.90
52211;DHT22;38179;52.756;6.906;2022-10-31T06:01:02;9.80;99.90
52211;DHT22;38179;52.756;6.906;2022-10-31T06:03:28;9.80;99.90
52211;DHT22;38179;52.756;6.906;2022-10-31T06:05:55;9.80;99.90
52211;DHT22;38179;52.756;6.906;2022-10-31T06:08:23;9.70;99.90
52211;DHT22;38179;52.756;6.906;2022-10-31T06:10:50;9.70;99.90
52211;DHT22;38179;52.756;6.906;2022-10-31T06:13:18;9.70;99.90
52211;DHT22;38179;52.756;6.906;2022-10-31T06:15:45;9.70;99.90
52211;DHT22;38179;52.756;6.906;2022-10-31T06:18:11;9.70;99.90
52211;DHT22;38179;52.756;6.906;2022-10-31T06:20:37;9.70;99.90
52211;DHT22;38179;52.756;6.906;2022-10-31T06:23:03;9.80;99.90
52211;DHT22;38179;52.756;6.906;2022-10-31T06:25:29;9.90;99.90
52211;DHT22;38179;52.756;6.906;2022-10-31T06:27:55;9.90;99.90
52211;DHT22;38179;52.756;6.906;2022-10-31T06:30:21;10.00;99.90
52211;DHT22;38179;52.756;6.906;2022-10-31T06:32:47;10.00;99.90
52211;DHT22;38179;52.756;6.906;2022-10-31T06:35:15;10.00;99.90
52211;DHT22;38179;52.756;6.906;2022-10-31T06:37:40;9.90;99.90
52211;DHT22;38179;52.756;6.906;2022-10-31T06:40:07;9.80;99.90
52211;DHT22;38179;52.756;6.906;2022-10-31T06:42:33;9.80;99.90
52211;DHT22;38179;52.756;6.906;2022-10-31T06:44:59;9.70;99.90
52211;DHT22;38179;52.756;6.906;2022-10-31T06:47:25;9.70;99.90
52211;DHT22;38179;52.756;6.906;2022-10-31T06:49:50;9.80;99.90
52211;DHT22;38179;52.756;6.906;2022-10-31T06:52:16;9.80;99.90
52211;DHT22;38179;52.756;6.906;2022-10-31T06:54:42;9.90;99.90
52211;DHT22;38179;52.756;6.906;2022-10-31T06:57:08;9.90;99.90
52211;DHT22;38179;52.756;6.906;2022-10-31T06:59:34;9.90;99.90
52211;DHT22;38179;52.756;6.906;2022-10-31T07:02:00;10.00;99.90
52211;DHT22;38179;52.756;6.906;2022-10-31T07:04:26;10.00;99.90
52211;DHT22;38179;52.756;6.906;2022-10-31T07:06:52;10.00;99.90
52211;DHT22;38179;52.756;6.906;2022-10-31T07:09:18;10.00;99.90
52211;DHT22;38179;52.756;6.906;2022-10-31T07:11:44;10.00;99.90
52211;DHT22;38179;52.756;6.906;2022-10-31T07:14:10;10.00;99.90
52211;DHT22;38179;52.756;6.906;2022-10-31T07:16:36;10.00;99.90
52211;DHT22;38179;52.756;6.906;2022-10-31T07:19:02;10.00;99.90
52211;DHT22;38179;52.756;6.906;2022-10-31T07:21:28;9.90;99.90
52211;DHT22;38179;52.756;6.906;2022-10-31T07:23:57;9.80;99.90
52211;DHT22;38179;52.756;6.906;2022-10-31T07:26:23;9.70;99.90
52211;DHT22;38179;52.756;6.906;2022-10-31T07:28:50;9.80;99.90
52211;DHT22;38179;52.756;6.906;2022-10-31T07:31:16;9.70;99.90
52211;DHT22;38179;52.756;6.906;2022-10-31T07:33:43;9.70;99.90
52211;DHT22;38179;52.756;6.906;2022-10-31T07:36:09;9.80;99.90
52211;DHT22;38179;52.756;6.906;2022-10-31T07:38:35;9.80;99.90
52211;DHT22;38179;52.756;6.906;2022-10-31T07:41:01;9.70;99.90
52211;DHT22;38179;52.756;6.906;2022-10-31T07:43:27;9.70;99.90
52211;DHT22;38179;52.756;6.906;2022-10-31T07:45:53;9.70;99.90
52211;DHT22;38179;52.756;6.906;2022-10-31T07:48:19;9.70;99.90
52211;DHT22;38179;52.756;6.906;2022-10-31T07:50:46;9.70;99.90
52211;DHT22;38179;52.756;6.906;2022-10-31T07:53:13;9.70;99.90
52211;DHT22;38179;52.756;6.906;2022-10-31T07:55:41;9.70;99.90
52211;DHT22;38179;52.756;6.906;2022-10-31T07:58:12;9.70;99.90
52211;DHT22;38179;52.756;6.906;2022-10-31T08:00:41;9.70;99.90
52211;DHT22;38179;52.756;6.906;2022-10-31T08:03:18;9.70;99.90
52211;DHT22;38179;52.756;6.906;2022-10-31T08:05:45;9.70;99.90
52211;DHT22;38179;52.756;6.906;2022-10-31T08:08:13;9.70;99.90
52211;DHT22;38179;52.756;6.906;2022-10-31T08:10:39;9.70;99.90
52211;DHT22;38179;52.756;6.906;2022-10-31T08:13:11;9.70;99.90
52211;DHT22;38179;52.756;6.906;2022-10-31T08:15:38;9.80;99.90
52211;DHT22;38179;52.756;6.906;2022-10-31T08:18:11;9.80;99.90
52211;DHT22;38179;52.756;6.906;2022-10-31T08:20:37;9.80;99.90
52211;DHT22;38179;52.756;6.906;2022-10-31T08:23:04;9.90;99.90
52211;DHT22;38179;52.756;6.906;2022-10-31T08:25:32;9.90;99.90
52211;DHT22;38179;52.756;6.906;2022-10-31T08:27:59;10.00;99.90
52211;DHT22;38179;52.756;6.906;2022-10-31T08:30:28;10.00;99.90
52211;DHT22;38179;52.756;6.906;2022-10-31T08:33:06;10.10;99.90
52211;DHT22;38179;52.756;6.906;2022-10-31T08:35:33;10.10;99.90
52211;DHT22;38179;52.756;6.906;2022-10-31T08:37:59;10.20;99.90
52211;DHT22;38179;52.756;6.906;2022-10-31T08:40:27;10.30;99.90
52211;DHT22;38179;52.756;6.906;2022-10-31T08:43:16;10.40;99.90
52211;DHT22;38179;52.756;6.906;2022-10-31T08:45:44;10.40;99.90
52211;DHT22;38179;52.756;6.906;2022-10-31T08:48:13;10.50;99.90
52211;DHT22;38179;52.756;6.906;2022-10-31T08:50:40;10.60;99.90
52211;DHT22;38179;52.756;6.906;2022-10-31T08:53:15;10.70;99.90
52211;DHT22;38179;52.756;6.906;2022-10-31T08:55:42;10.70;99.90
52211;DHT22;38179;52.756;6.906;2022-10-31T08:58:14;10.90;99.90
52211;DHT22;38179;52.756;6.906;2022-10-31T09:00:43;10.90;99.90
52211;DHT22;38179;52.756;6.906;2022-10-31T09:03:12;11.00;99.90
52211;DHT22;38179;52.756;6.906;2022-10-31T09:05:39;11.20;99.90
52211;DHT22;38179;52.756;6.906;2022-10-31T09:08:06;11.20;99.90
52211;DHT22;38179;52.756;6.906;2022-10-31T09:10:36;11.30;99.90
52211;DHT22;38179;52.756;6.906;2022-10-31T09:13:08;11.40;99.90
52211;DHT22;38179;52.756;6.906;2022-10-31T09:15:36;11.40;99.90
52211;DHT22;38179;52.756;6.906;2022-10-31T09:18:05;11.50;99.90
52211;DHT22;38179;52.756;6.906;2022-10-31T09:20:32;11.60;99.90
52211;DHT22;38179;52.756;6.906;2022-10-31T09:23:01;11.60;99.90
52211;DHT22;38179;52.756;6.906;2022-10-31T09:25:28;11.70;99.90
52211;DHT22;38179;52.756;6.906;2022-10-31T09:27:58;11.70;99.90
52211;DHT22;38179;52.756;6.906;2022-10-31T09:30:26;11.70;99.90
52211;DHT22;38179;52.756;6.906;2022-10-31T09:33:04;11.80;99.90
52211;DHT22;38179;52.756;6.906;2022-10-31T09:35:30;11.90;99.90
52211;DHT22;38179;52.756;6.906;2022-10-31T09:37:59;11.90;99.90
52211;DHT22;38179;52.756;6.906;2022-10-31T09:40:38;12.00;99.90
52211;DHT22;38179;52.756;6.906;2022-10-31T09:46:10;12.10;99.90
52211;DHT22;38179;52.756;6.906;2022-10-31T09:51:46;12.30;99.90
52211;DHT22;38179;52.756;6.906;2022-10-31T09:57:31;12.40;99.90
52211;DHT22;38179;52.756;6.906;2022-10-31T09:59:59;12.40;99.90
52211;DHT22;38179;52.756;6.906;2022-10-31T10:02:43;12.50;99.90
52211;DHT22;38179;52.756;6.906;2022-10-31T10:05:13;12.50;99.90
52211;DHT22;38179;52.756;6.906;2022-10-31T10:08:01;12.60;99.90
52211;DHT22;38179;52.756;6.906;2022-10-31T10:23:57;12.80;99.90
52211;DHT22;38179;52.756;6.906;2022-10-31T10:26:34;12.80;99.90
52211;DHT22;38179;52.756;6.906;2022-10-31T10:31:42;12.80;99.90
52211;DHT22;38179;52.756;6.906;2022-10-31T10:36:54;12.90;99.90
52211;DHT22;38179;52.756;6.906;2022-10-31T10:39:41;12.90;99.90
52211;DHT22;38179;52.756;6.906;2022-10-31T10:45:19;12.90;99.90
52211;DHT22;38179;52.756;6.906;2022-10-31T10:54:02;13.30;99.90
52211;DHT22;38179;52.756;6.906;2022-10-31T11:00:20;13.30;99.90
52211;DHT22;38179;52.756;6.906;2022-10-31T11:02:47;13.30;99.90
52211;DHT22;38179;52.756;6.906;2022-10-31T11:05:35;13.30;99.90
52211;DHT22;38179;52.756;6.906;2022-10-31T11:08:05;13.40;99.90
52211;DHT22;38179;52.756;6.906;2022-10-31T11:10:31;13.40;99.90
52211;DHT22;38179;52.756;6.906;2022-10-31T11:18:31;13.50;99.90
52211;DHT22;38179;52.756;6.906;2022-10-31T11:21:00;13.50;99.90
52211;DHT22;38179;52.756;6.906;2022-10-31T11:23:30;13.60;99.90
52211;DHT22;38179;52.756;6.906;2022-10-31T11:26:02;13.60;99.90
52211;DHT22;38179;52.756;6.906;2022-10-31T11:28:30;13.60;99.90
52211;DHT22;38179;52.756;6.906;2022-10-31T11:31:00;13.60;99.90
52211;DHT22;38179;52.756;6.906;2022-10-31T11:36:02;13.70;99.90
52211;DHT22;38179;52.756;6.906;2022-10-31T11:38:35;13.70;99.90
52211;DHT22;38179;52.756;6.906;2022-10-31T11:41:19;13.70;99.90
52211;DHT22;38179;52.756;6.906;2022-10-31T11:44:02;13.80;99.90
52211;DHT22;38179;52.756;6.906;2022-10-31T11:49:33;13.70;99.90
52211;DHT22;38179;52.756;6.906;2022-10-31T11:52:06;13.80;99.90
52211;DHT22;38179;52.756;6.906;2022-10-31T11:57:32;13.90;99.90
52211;DHT22;38179;52.756;6.906;2022-10-31T12:00:00;13.90;99.90
52211;DHT22;38179;52.756;6.906;2022-10-31T12:02:28;14.00;99.90
52211;DHT22;38179;52.756;6.906;2022-10-31T12:05:20;13.90;99.90
52211;DHT22;38179;52.756;6.906;2022-10-31T12:07:49;13.90;99.90
52211;DHT22;38179;52.756;6.906;2022-10-31T12:10:15;14.00;99.90
52211;DHT22;38179;52.756;6.906;2022-10-31T12:13:50;14.00;99.90
52211;DHT22;38179;52.756;6.906;2022-10-31T12:16:00;14.00;99.90
52211;DHT22;38179;52.756;6.906;2022-10-31T12:18:46;14.00;99.90
52211;DHT22;38179;52.756;6.906;2022-10-31T12:24:29;14.10;99.90
52211;DHT22;38179;52.756;6.906;2022-10-31T12:27:18;14.20;99.90
52211;DHT22;38179;52.756;6.906;2022-10-31T12:40:57;14.40;99.90
52211;DHT22;38179;52.756;6.906;2022-10-31T12:46:53;14.40;99.90
52211;DHT22;38179;52.756;6.906;2022-10-31T12:57:46;14.70;99.90
52211;DHT22;38179;52.756;6.906;2022-10-31T13:00:18;14.80;99.90
52211;DHT22;38179;52.756;6.906;2022-10-31T13:02:53;14.80;99.90
52211;DHT22;38179;52.756;6.906;2022-10-31T13:05:31;14.80;99.90
52211;DHT22;38179;52.756;6.906;2022-10-31T13:08:11;14.90;99.90
52211;DHT22;38179;52.756;6.906;2022-10-31T13:10:46;14.90;99.90
52211;DHT22;38179;52.756;6.906;2022-10-31T13:13:30;14.90;99.90
52211;DHT22;38179;52.756;6.906;2022-10-31T13:16:09;14.90;99.90
52211;DHT22;38179;52.756;6.906;2022-10-31T13:18:47;14.90;99.90
52211;DHT22;38179;52.756;6.906;2022-10-31T13:21:26;14.80;99.90
52211;DHT22;38179;52.756;6.906;2022-10-31T13:23:55;14.80;99.90
52211;DHT22;38179;52.756;6.906;2022-10-31T13:26:28;14.80;99.90
52211;DHT22;38179;52.756;6.906;2022-10-31T13:29:13;14.70;99.90
52211;DHT22;38179;52.756;6.906;2022-10-31T13:31:42;14.70;99.90
52211;DHT22;38179;52.756;6.906;2022-10-31T13:34:23;14.70;99.90
52211;DHT22;38179;52.756;6.906;2022-10-31T13:41:53;14.70;99.90
52211;DHT22;38179;52.756;6.906;2022-10-31T13:44:25;14.70;99.90
52211;DHT22;38179;52.756;6.906;2022-10-31T13:46:57;14.70;99.90
52211;DHT22;38179;52.756;6.906;2022-10-31T13:52:11;14.60;99.90
52211;DHT22;38179;52.756;6.906;2022-10-31T13:54:45;14.60;99.90
52211;DHT22;38179;52.756;6.906;2022-10-31T13:57:18;14.60;99.90
52211;DHT22;38179;52.756;6.906;2022-10-31T13:59:54;14.60;99.90
52211;DHT22;38179;52.756;6.906;2022-10-31T14:02:43;14.60;99.90
52211;DHT22;38179;52.756;6.906;2022-10-31T14:05:21;14.60;99.90
52211;DHT22;38179;52.756;6.906;2022-10-31T14:07:49;14.60;99.90
52211;DHT22;38179;52.756;6.906;2022-10-31T14:10:32;14.60;99.90
52211;DHT22;38179;52.756;6.906;2022-10-31T14:13:31;14.60;99.90
52211;DHT22;38179;52.756;6.906;2022-10-31T14:16:06;14.60;99.90
52211;DHT22;38179;52.756;6.906;2022-10-31T14:18:46;14.70;99.90
52211;DHT22;38179;52.756;6.906;2022-10-31T14:23:51;14.60;99.90
52211;DHT22;38179;52.756;6.906;2022-10-31T14:28:59;14.60;99.90
52211;DHT22;38179;52.756;6.906;2022-10-31T14:42:40;14.60;99.90
52211;DHT22;38179;52.756;6.906;2022-10-31T14:48:42;14.60;99.90
52211;DHT22;38179;52.756;6.906;2022-10-31T14:51:18;14.50;99.90
52211;DHT22;38179;52.756;6.906;2022-10-31T14:53:53;14.60;99.90
52211;DHT22;38179;52.756;6.906;2022-10-31T14:56:32;14.50;99.90
52211;DHT22;38179;52.756;6.906;2022-10-31T14:59:11;14.50;99.90
52211;DHT22;38179;52.756;6.906;2022-10-31T15:01:39;14.50;99.90
52211;DHT22;38179;52.756;6.906;2022-10-31T15:04:13;14.50;99.90
52211;DHT22;38179;52.756;6.906;2022-10-31T15:06:46;14.50;99.90
52211;DHT22;38179;52.756;6.906;2022-10-31T15:09:24;14.50;99.90
52211;DHT22;38179;52.756;6.906;2022-10-31T15:11:50;14.50;99.90
52211;DHT22;38179;52.756;6.906;2022-10-31T15:14:28;14.50;99.90
52211;DHT22;38179;52.756;6.906;2022-10-31T15:17:01;14.40;99.90
52211;DHT22;38179;52.756;6.906;2022-10-31T15:19:30;14.40;99.90
52211;DHT22;38179;52.756;6.906;2022-10-31T15:21:56;14.40;99.90
52211;DHT22;38179;52.756;6.906;2022-10-31T15:24:27;14.40;99.90
52211;DHT22;38179;52.756;6.906;2022-10-31T15:26:56;14.40;99.90
52211;DHT22;38179;52.756;6.906;2022-10-31T15:29:24;14.40;99.90
52211;DHT22;38179;52.756;6.906;2022-10-31T15:32:17;14.40;99.90
52211;DHT22;38179;52.756;6.906;2022-10-31T15:34:44;14.40;99.90
52211;DHT22;38179;52.756;6.906;2022-10-31T15:37:12;14.30;99.90
52211;DHT22;38179;52.756;6.906;2022-10-31T15:39:42;14.30;99.90
52211;DHT22;38179;52.756;6.906;2022-10-31T15:42:22;14.20;99.90
52211;DHT22;38179;52.756;6.906;2022-10-31T15:47:29;14.20;99.90
52211;DHT22;38179;52.756;6.906;2022-10-31T15:49:57;14.20;99.90
52211;DHT22;38179;52.756;6.906;2022-10-31T15:52:36;14.20;99.90
52211;DHT22;38179;52.756;6.906;2022-10-31T15:55:15;14.20;99.90
52211;DHT22;38179;52.756;6.906;2022-10-31T15:57:44;14.20;99.90
52211;DHT22;38179;52.756;6.906;2022-10-31T16:02:48;14.10;99.90
52211;DHT22;38179;52.756;6.906;2022-10-31T16:05:16;14.20;99.90
52211;DHT22;38179;52.756;6.906;2022-10-31T16:07:49;14.10;99.90
52211;DHT22;38179;52.756;6.906;2022-10-31T16:10:24;14.10;99.90
52211;DHT22;38179;52.756;6.906;2022-10-31T16:12:51;14.10;99.90
52211;DHT22;38179;52.756;6.906;2022-10-31T16:15:19;14.10;99.90
52211;DHT22;38179;52.756;6.906;2022-10-31T16:17:50;14.10;99.90
52211;DHT22;38179;52.756;6.906;2022-10-31T16:20:25;14.10;99.90
52211;DHT22;38179;52.756;6.906;2022-10-31T16:22:53;14.10;99.90
52211;DHT22;38179;52.756;6.906;2022-10-31T16:25:32;14.10;99.90
52211;DHT22;38179;52.756;6.906;2022-10-31T16:28:06;14.10;99.90
52211;DHT22;38179;52.756;6.906;2022-10-31T16:30:42;14.00;99.90
52211;DHT22;38179;52.756;6.906;2022-10-31T16:33:32;14.00;99.90
52211;DHT22;38179;52.756;6.906;2022-10-31T16:38:57;14.00;99.90
52211;DHT22;38179;52.756;6.906;2022-10-31T16:41:24;14.00;99.90
52211;DHT22;38179;52.756;6.906;2022-10-31T16:43:52;14.00;99.90
52211;DHT22;38179;52.756;6.906;2022-10-31T16:46:26;14.00;99.90
52211;DHT22;38179;52.756;6.906;2022-10-31T16:48:53;14.00;99.90
52211;DHT22;38179;52.756;6.906;2022-10-31T16:51:19;14.00;99.90
52211;DHT22;38179;52.756;6.906;2022-10-31T16:53:45;14.00;99.90
52211;DHT22;38179;52.756;6.906;2022-10-31T16:56:36;14.00;99.90
52211;DHT22;38179;52.756;6.906;2022-10-31T16:59:03;13.90;99.90
52211;DHT22;38179;52.756;6.906;2022-10-31T17:01:30;13.90;99.90
52211;DHT22;38179;52.756;6.906;2022-10-31T17:03:56;13.90;99.90
52211;DHT22;38179;52.756;6.906;2022-10-31T17:06:22;14.00;99.90
52211;DHT22;38179;52.756;6.906;2022-10-31T17:08:47;14.00;99.90
52211;DHT22;38179;52.756;6.906;2022-10-31T17:11:18;14.00;99.90
52211;DHT22;38179;52.756;6.906;2022-10-31T17:13:44;14.00;99.90
52211;DHT22;38179;52.756;6.906;2022-10-31T17:16:12;14.00;99.90
52211;DHT22;38179;52.756;6.906;2022-10-31T17:18:39;13.90;99.90
52211;DHT22;38179;52.756;6.906;2022-10-31T17:21:05;13.90;99.90
52211;DHT22;38179;52.756;6.906;2022-10-31T17:23:31;13.90;99.90
52211;DHT22;38179;52.756;6.906;2022-10-31T17:26:01;13.90;99.90
52211;DHT22;38179;52.756;6.906;2022-10-31T17:28:27;13.90;99.90
52211;DHT22;38179;52.756;6.906;2022-10-31T17:30:54;13.90;99.90
52211;DHT22;38179;52.756;6.906;2022-10-31T17:33:22;13.90;99.90
52211;DHT22;38179;52.756;6.906;2022-10-31T17:35:49;13.90;99.90
52211;DHT22;38179;52.756;6.906;2022-10-31T17:38:16;13.90;99.90
52211;DHT22;38179;52.756;6.906;2022-10-31T17:40:42;14.00;99.90
52211;DHT22;38179;52.756;6.906;2022-10-31T17:43:08;13.90;99.90
52211;DHT22;38179;52.756;6.906;2022-10-31T17:45:37;13.90;99.90
52211;DHT22;38179;52.756;6.906;2022-10-31T17:48:04;13.90;99.90
52211;DHT22;38179;52.756;6.906;2022-10-31T17:50:30;13.90;99.90
52211;DHT22;38179;52.756;6.906;2022-10-31T17:52:57;13.90;99.90
52211;DHT22;38179;52.756;6.906;2022-10-31T17:55:23;13.90;99.90
52211;DHT22;38179;52.756;6.906;2022-10-31T17:57:49;13.90;99.90
52211;DHT22;38179;52.756;6.906;2022-10-31T18:00:18;13.90;99.90
52211;DHT22;38179;52.756;6.906;2022-10-31T18:02:45;13.90;99.90
52211;DHT22;38179;52.756;6.906;2022-10-31T18:05:12;13.90;99.90
52211;DHT22;38179;52.756;6.906;2022-10-31T18:07:38;13.90;99.90
52211;DHT22;38179;52.756;6.906;2022-10-31T18:10:04;13.90;99.90
52211;DHT22;38179;52.756;6.906;2022-10-31T18:12:30;13.90;99.90
52211;DHT22;38179;52.756;6.906;2022-10-31T18:14:59;13.90;99.90
52211;DHT22;38179;52.756;6.906;2022-10-31T18:17:25;13.90;99.90
52211;DHT22;38179;52.756;6.906;2022-10-31T18:19:51;13.90;99.90